sensor_id;sensor_type;location;lat;lon;timestamp;P1;durP1;ratioP1;P2;durP2;ratioP2
13163;SDS011;6647;53.688;10.746;2022-12-07T00:00:20;20.00;;;10.82;;
13163;SDS011;6647;53.688;10.746;2022-12-07T00:01:42;19.02;;;12.05;;
13163;SDS011;6647;53.688;10.746;2022-12-07T00:03:03;21.85;;;12.68;;
13163;SDS011;6647;53.688;10.746;2022-12-07T00:04:24;16.88;;;11.75;;
13163;SDS011;6647;53.688;10.746;2022-12-07T00:05:45;27.58;;;13.98;;
13163;SDS011;6647;53.688;10.746;2022-12-07T00:07:06;21.85;;;11.98;;
13163;SDS011;6647;53.688;10.746;2022-12-07T00:08:27;24.73;;;12.63;;
13163;SDS011;6647;53.688;10.746;2022-12-07T00:09:47;19.27;;;12.25;;
13163;SDS011;6647;53.688;10.746;2022-12-07T00:11:12;17.55;;;11.20;;
13163;SDS011;6647;53.688;10.746;2022-12-07T00:12:37;21.70;;;13.10;;
13163;SDS011;6647;53.688;10.746;2022-12-07T00:13:59;23.23;;;13.38;;
13163;SDS011;6647;53.688;10.746;2022-12-07T00:15:22;21.27;;;12.70;;
13163;SDS011;6647;53.688;10.746;2022-12-07T00:16:43;20.10;;;12.32;;
13163;SDS011;6647;53.688;10.746;2022-12-07T00:18:05;21.88;;;14.48;;
13163;SDS011;6647;53.688;10.746;2022-12-07T00:19:26;22.80;;;13.73;;
13163;SDS011;6647;53.688;10.746;2022-12-07T00:20:46;21.73;;;14.07;;
13163;SDS011;6647;53.688;10.746;2022-12-07T00:22:07;24.25;;;14.82;;
13163;SDS011;6647;53.688;10.746;2022-12-07T00:23:28;25.10;;;14.80;;
13163;SDS011;6647;53.688;10.746;2022-12-07T00:24:50;29.58;;;15.63;;
13163;SDS011;6647;53.688;10.746;2022-12-07T00:26:21;21.85;;;14.15;;
13163;SDS011;6647;53.688;10.746;2022-12-07T00:27:43;24.80;;;14.45;;
13163;SDS011;6647;53.688;10.746;2022-12-07T00:29:09;25.77;;;15.30;;
13163;SDS011;6647;53.688;10.746;2022-12-07T00:30:36;25.88;;;15.73;;
13163;SDS011;6647;53.688;10.746;2022-12-07T00:31:57;22.70;;;15.05;;
13163;SDS011;6647;53.688;10.746;2022-12-07T00:33:18;23.88;;;14.30;;
13163;SDS011;6647;53.688;10.746;2022-12-07T00:34:39;26.05;;;16.60;;
13163;SDS011;6647;53.688;10.746;2022-12-07T00:36:00;26.52;;;15.40;;
13163;SDS011;6647;53.688;10.746;2022-12-07T00:37:24;26.02;;;14.38;;
13163;SDS011;6647;53.688;10.746;2022-12-07T00:38:45;23.58;;;15.35;;
13163;SDS011;6647;53.688;10.746;2022-12-07T00:40:06;25.33;;;15.75;;
13163;SDS011;6647;53.688;10.746;2022-12-07T00:41:27;23.40;;;15.23;;
13163;SDS011;6647;53.688;10.746;2022-12-07T00:42:49;26.77;;;15.80;;
13163;SDS011;6647;53.688;10.746;2022-12-07T00:44:10;25.27;;;15.70;;
13163;SDS011;6647;53.688;10.746;2022-12-07T00:45:31;21.92;;;13.50;;
13163;SDS011;6647;53.688;10.746;2022-12-07T00:46:52;22.35;;;13.93;;
13163;SDS011;6647;53.688;10.746;2022-12-07T00:48:13;24.73;;;16.25;;
13163;SDS011;6647;53.688;10.746;2022-12-07T00:49:33;22.60;;;14.40;;
13163;SDS011;6647;53.688;10.746;2022-12-07T00:50:54;27.50;;;16.08;;
13163;SDS011;6647;53.688;10.746;2022-12-07T00:52:15;22.85;;;15.38;;
13163;SDS011;6647;53.688;10.746;2022-12-07T00:53:36;24.63;;;15.63;;
13163;SDS011;6647;53.688;10.746;2022-12-07T00:54:58;26.85;;;16.90;;
13163;SDS011;6647;53.688;10.746;2022-12-07T00:56:26;29.95;;;17.02;;
13163;SDS011;6647;53.688;10.746;2022-12-07T00:57:48;25.48;;;16.02;;
13163;SDS011;6647;53.688;10.746;2022-12-07T00:59:10;28.65;;;16.65;;
13163;SDS011;6647;53.688;10.746;2022-12-07T01:00:35;29.67;;;17.55;;
13163;SDS011;6647;53.688;10.746;2022-12-07T01:01:57;27.00;;;17.25;;
13163;SDS011;6647;53.688;10.746;2022-12-07T01:03:18;33.67;;;17.60;;
13163;SDS011;6647;53.688;10.746;2022-12-07T01:04:39;34.35;;;17.85;;
13163;SDS011;6647;53.688;10.746;2022-12-07T01:06:00;32.65;;;17.30;;
13163;SDS011;6647;53.688;10.746;2022-12-07T01:07:21;30.98;;;18.02;;
13163;SDS011;6647;53.688;10.746;2022-12-07T01:08:42;28.00;;;18.02;;
13163;SDS011;6647;53.688;10.746;2022-12-07T01:10:03;31.50;;;18.02;;
13163;SDS011;6647;53.688;10.746;2022-12-07T01:11:25;30.27;;;19.50;;
13163;SDS011;6647;53.688;10.746;2022-12-07T01:12:48;34.67;;;20.65;;
13163;SDS011;6647;53.688;10.746;2022-12-07T01:14:09;33.08;;;18.92;;
13163;SDS011;6647;53.688;10.746;2022-12-07T01:15:30;31.60;;;18.83;;
13163;SDS011;6647;53.688;10.746;2022-12-07T01:16:50;30.63;;;20.08;;
13163;SDS011;6647;53.688;10.746;2022-12-07T01:18:11;30.70;;;18.92;;
13163;SDS011;6647;53.688;10.746;2022-12-07T01:19:32;33.97;;;20.00;;
13163;SDS011;6647;53.688;10.746;2022-12-07T01:20:57;34.53;;;20.00;;
13163;SDS011;6647;53.688;10.746;2022-12-07T01:22:22;38.40;;;21.13;;
13163;SDS011;6647;53.688;10.746;2022-12-07T01:23:43;38.08;;;21.67;;
13163;SDS011;6647;53.688;10.746;2022-12-07T01:25:05;31.30;;;19.73;;
13163;SDS011;6647;53.688;10.746;2022-12-07T01:26:27;35.08;;;21.48;;
13163;SDS011;6647;53.688;10.746;2022-12-07T01:27:48;40.22;;;21.88;;
13163;SDS011;6647;53.688;10.746;2022-12-07T01:29:09;31.38;;;18.90;;
13163;SDS011;6647;53.688;10.746;2022-12-07T01:30:29;40.47;;;21.25;;
13163;SDS011;6647;53.688;10.746;2022-12-07T01:31:50;39.10;;;20.13;;
13163;SDS011;6647;53.688;10.746;2022-12-07T01:33:11;37.08;;;20.38;;
13163;SDS011;6647;53.688;10.746;2022-12-07T01:34:32;32.55;;;20.50;;
13163;SDS011;6647;53.688;10.746;2022-12-07T01:35:53;35.30;;;20.95;;
13163;SDS011;6647;53.688;10.746;2022-12-07T01:37:14;39.53;;;20.55;;
13163;SDS011;6647;53.688;10.746;2022-12-07T01:38:35;32.90;;;21.35;;
13163;SDS011;6647;53.688;10.746;2022-12-07T01:39:55;33.58;;;19.48;;
13163;SDS011;6647;53.688;10.746;2022-12-07T01:41:16;34.33;;;20.65;;
13163;SDS011;6647;53.688;10.746;2022-12-07T01:42:37;33.40;;;20.58;;
13163;SDS011;6647;53.688;10.746;2022-12-07T01:45:37;32.97;;;19.73;;
13163;SDS011;6647;53.688;10.746;2022-12-07T01:47:01;35.35;;;21.35;;
13163;SDS011;6647;53.688;10.746;2022-12-07T01:48:25;35.17;;;20.08;;
13163;SDS011;6647;53.688;10.746;2022-12-07T01:49:54;35.45;;;20.10;;
13163;SDS011;6647;53.688;10.746;2022-12-07T01:51:15;31.63;;;20.30;;
13163;SDS011;6647;53.688;10.746;2022-12-07T01:52:36;32.85;;;20.60;;
13163;SDS011;6647;53.688;10.746;2022-12-07T01:53:59;34.33;;;20.10;;
13163;SDS011;6647;53.688;10.746;2022-12-07T01:55:21;32.03;;;19.40;;
13163;SDS011;6647;53.688;10.746;2022-12-07T01:56:44;30.35;;;19.33;;
13163;SDS011;6647;53.688;10.746;2022-12-07T01:58:09;30.92;;;19.52;;
13163;SDS011;6647;53.688;10.746;2022-12-07T01:59:32;35.10;;;19.45;;
13163;SDS011;6647;53.688;10.746;2022-12-07T02:00:53;33.75;;;20.27;;
13163;SDS011;6647;53.688;10.746;2022-12-07T02:02:19;32.53;;;19.17;;
13163;SDS011;6647;53.688;10.746;2022-12-07T02:03:45;33.80;;;20.65;;
13163;SDS011;6647;53.688;10.746;2022-12-07T02:05:06;29.98;;;20.60;;
13163;SDS011;6647;53.688;10.746;2022-12-07T02:06:27;30.80;;;18.15;;
13163;SDS011;6647;53.688;10.746;2022-12-07T02:07:49;29.20;;;19.08;;
13163;SDS011;6647;53.688;10.746;2022-12-07T02:09:12;32.28;;;20.45;;
13163;SDS011;6647;53.688;10.746;2022-12-07T02:10:33;36.85;;;21.13;;
13163;SDS011;6647;53.688;10.746;2022-12-07T02:11:54;33.30;;;20.08;;
13163;SDS011;6647;53.688;10.746;2022-12-07T02:13:20;33.60;;;21.40;;
13163;SDS011;6647;53.688;10.746;2022-12-07T02:14:44;34.58;;;19.25;;
13163;SDS011;6647;53.688;10.746;2022-12-07T02:18:07;29.58;;;19.40;;
13163;SDS011;6647;53.688;10.746;2022-12-07T02:19:49;31.73;;;19.42;;
13163;SDS011;6647;53.688;10.746;2022-12-07T02:27:01;30.52;;;18.85;;
13163;SDS011;6647;53.688;10.746;2022-12-07T02:28:33;32.63;;;18.15;;
13163;SDS011;6647;53.688;10.746;2022-12-07T02:30:00;28.80;;;19.40;;
13163;SDS011;6647;53.688;10.746;2022-12-07T02:31:35;28.13;;;18.23;;
13163;SDS011;6647;53.688;10.746;2022-12-07T02:33:12;28.52;;;17.45;;
13163;SDS011;6647;53.688;10.746;2022-12-07T02:34:47;26.23;;;16.73;;
13163;SDS011;6647;53.688;10.746;2022-12-07T02:36:26;32.70;;;17.83;;
13163;SDS011;6647;53.688;10.746;2022-12-07T02:37:53;29.60;;;17.73;;
13163;SDS011;6647;53.688;10.746;2022-12-07T02:39:25;32.00;;;16.52;;
13163;SDS011;6647;53.688;10.746;2022-12-07T02:41:17;29.65;;;17.60;;
13163;SDS011;6647;53.688;10.746;2022-12-07T02:42:46;29.67;;;17.25;;
13163;SDS011;6647;53.688;10.746;2022-12-07T02:44:12;28.55;;;17.50;;
13163;SDS011;6647;53.688;10.746;2022-12-07T02:45:38;27.83;;;16.35;;
13163;SDS011;6647;53.688;10.746;2022-12-07T02:47:03;22.63;;;14.75;;
13163;SDS011;6647;53.688;10.746;2022-12-07T02:48:27;26.05;;;16.33;;
13163;SDS011;6647;53.688;10.746;2022-12-07T02:49:48;24.92;;;14.82;;
13163;SDS011;6647;53.688;10.746;2022-12-07T02:51:10;18.20;;;13.63;;
13163;SDS011;6647;53.688;10.746;2022-12-07T02:52:32;24.42;;;12.57;;
13163;SDS011;6647;53.688;10.746;2022-12-07T02:53:53;19.58;;;12.85;;
13163;SDS011;6647;53.688;10.746;2022-12-07T02:55:14;17.73;;;12.30;;
13163;SDS011;6647;53.688;10.746;2022-12-07T02:58:17;17.73;;;12.15;;
13163;SDS011;6647;53.688;10.746;2022-12-07T03:03:12;17.75;;;11.35;;
13163;SDS011;6647;53.688;10.746;2022-12-07T03:06:31;13.18;;;8.82;;
13163;SDS011;6647;53.688;10.746;2022-12-07T03:08:05;11.65;;;7.95;;
13163;SDS011;6647;53.688;10.746;2022-12-07T03:11:15;13.82;;;7.65;;
13163;SDS011;6647;53.688;10.746;2022-12-07T03:12:43;10.85;;;7.82;;
13163;SDS011;6647;53.688;10.746;2022-12-07T03:14:35;11.07;;;8.07;;
13163;SDS011;6647;53.688;10.746;2022-12-07T03:16:25;8.40;;;6.25;;
13163;SDS011;6647;53.688;10.746;2022-12-07T03:17:51;17.60;;;7.20;;
13163;SDS011;6647;53.688;10.746;2022-12-07T03:19:14;12.82;;;7.70;;
13163;SDS011;6647;53.688;10.746;2022-12-07T03:20:37;9.68;;;7.57;;
13163;SDS011;6647;53.688;10.746;2022-12-07T03:22:04;9.98;;;7.38;;
13163;SDS011;6647;53.688;10.746;2022-12-07T03:23:29;10.10;;;7.20;;
13163;SDS011;6647;53.688;10.746;2022-12-07T03:24:58;16.50;;;8.25;;
13163;SDS011;6647;53.688;10.746;2022-12-07T03:26:21;11.50;;;8.35;;
13163;SDS011;6647;53.688;10.746;2022-12-07T03:28:05;11.15;;;7.63;;
13163;SDS011;6647;53.688;10.746;2022-12-07T03:29:28;13.30;;;8.60;;
13163;SDS011;6647;53.688;10.746;2022-12-07T03:30:55;12.38;;;8.60;;
13163;SDS011;6647;53.688;10.746;2022-12-07T03:32:25;14.20;;;9.13;;
13163;SDS011;6647;53.688;10.746;2022-12-07T03:34:09;13.48;;;8.32;;
13163;SDS011;6647;53.688;10.746;2022-12-07T03:36:07;12.90;;;8.68;;
13163;SDS011;6647;53.688;10.746;2022-12-07T03:37:56;14.00;;;8.75;;
13163;SDS011;6647;53.688;10.746;2022-12-07T03:39:39;20.75;;;8.60;;
13163;SDS011;6647;53.688;10.746;2022-12-07T03:41:06;18.40;;;9.45;;
13163;SDS011;6647;53.688;10.746;2022-12-07T03:42:49;19.65;;;7.93;;
13163;SDS011;6647;53.688;10.746;2022-12-07T03:44:12;17.65;;;9.63;;
13163;SDS011;6647;53.688;10.746;2022-12-07T03:45:41;13.57;;;7.90;;
13163;SDS011;6647;53.688;10.746;2022-12-07T03:47:18;11.85;;;7.00;;
13163;SDS011;6647;53.688;10.746;2022-12-07T03:48:47;15.02;;;8.65;;
13163;SDS011;6647;53.688;10.746;2022-12-07T03:50:27;11.93;;;7.88;;
13163;SDS011;6647;53.688;10.746;2022-12-07T03:51:54;12.20;;;8.15;;
13163;SDS011;6647;53.688;10.746;2022-12-07T03:53:34;11.52;;;7.28;;
13163;SDS011;6647;53.688;10.746;2022-12-07T03:55:08;12.20;;;6.95;;
13163;SDS011;6647;53.688;10.746;2022-12-07T03:56:33;12.13;;;7.57;;
13163;SDS011;6647;53.688;10.746;2022-12-07T03:57:56;22.73;;;7.82;;
13163;SDS011;6647;53.688;10.746;2022-12-07T03:59:23;12.07;;;7.95;;
13163;SDS011;6647;53.688;10.746;2022-12-07T04:00:44;10.10;;;7.45;;
13163;SDS011;6647;53.688;10.746;2022-12-07T04:02:06;11.95;;;6.75;;
13163;SDS011;6647;53.688;10.746;2022-12-07T04:03:27;11.27;;;7.53;;
13163;SDS011;6647;53.688;10.746;2022-12-07T04:04:48;12.82;;;7.20;;
13163;SDS011;6647;53.688;10.746;2022-12-07T04:06:10;11.27;;;7.25;;
13163;SDS011;6647;53.688;10.746;2022-12-07T04:07:31;13.45;;;7.10;;
13163;SDS011;6647;53.688;10.746;2022-12-07T04:08:51;16.92;;;7.28;;
13163;SDS011;6647;53.688;10.746;2022-12-07T04:10:12;9.50;;;6.47;;
13163;SDS011;6647;53.688;10.746;2022-12-07T04:11:33;9.90;;;7.78;;
13163;SDS011;6647;53.688;10.746;2022-12-07T04:12:54;9.15;;;6.80;;
13163;SDS011;6647;53.688;10.746;2022-12-07T04:14:15;13.07;;;7.50;;
13163;SDS011;6647;53.688;10.746;2022-12-07T04:15:39;11.13;;;6.75;;
13163;SDS011;6647;53.688;10.746;2022-12-07T04:17:00;10.98;;;7.13;;
13163;SDS011;6647;53.688;10.746;2022-12-07T04:18:21;10.50;;;5.93;;
13163;SDS011;6647;53.688;10.746;2022-12-07T04:19:42;10.18;;;7.15;;
13163;SDS011;6647;53.688;10.746;2022-12-07T04:21:03;9.02;;;6.63;;
13163;SDS011;6647;53.688;10.746;2022-12-07T04:22:24;11.90;;;6.95;;
13163;SDS011;6647;53.688;10.746;2022-12-07T04:23:44;14.30;;;7.30;;
13163;SDS011;6647;53.688;10.746;2022-12-07T04:25:05;7.72;;;6.07;;
13163;SDS011;6647;53.688;10.746;2022-12-07T04:26:26;9.65;;;6.45;;
13163;SDS011;6647;53.688;10.746;2022-12-07T04:27:47;10.10;;;6.10;;
13163;SDS011;6647;53.688;10.746;2022-12-07T04:29:09;9.82;;;6.45;;
13163;SDS011;6647;53.688;10.746;2022-12-07T04:30:30;9.15;;;6.38;;
13163;SDS011;6647;53.688;10.746;2022-12-07T04:31:51;11.02;;;6.18;;
13163;SDS011;6647;53.688;10.746;2022-12-07T04:33:12;8.55;;;6.18;;
13163;SDS011;6647;53.688;10.746;2022-12-07T04:34:32;9.93;;;6.43;;
13163;SDS011;6647;53.688;10.746;2022-12-07T04:35:53;7.82;;;5.70;;
13163;SDS011;6647;53.688;10.746;2022-12-07T04:37:14;9.07;;;5.90;;
13163;SDS011;6647;53.688;10.746;2022-12-07T04:38:35;9.77;;;6.50;;
13163;SDS011;6647;53.688;10.746;2022-12-07T04:39:56;6.45;;;4.88;;
13163;SDS011;6647;53.688;10.746;2022-12-07T04:41:17;5.40;;;4.75;;
13163;SDS011;6647;53.688;10.746;2022-12-07T04:42:38;6.45;;;4.40;;
13163;SDS011;6647;53.688;10.746;2022-12-07T04:44:03;7.03;;;4.85;;
13163;SDS011;6647;53.688;10.746;2022-12-07T04:45:27;7.40;;;4.97;;
13163;SDS011;6647;53.688;10.746;2022-12-07T04:46:48;12.05;;;5.25;;
13163;SDS011;6647;53.688;10.746;2022-12-07T04:48:10;9.35;;;4.88;;
13163;SDS011;6647;53.688;10.746;2022-12-07T04:49:30;13.18;;;5.45;;
13163;SDS011;6647;53.688;10.746;2022-12-07T04:50:51;5.07;;;4.63;;
13163;SDS011;6647;53.688;10.746;2022-12-07T04:52:12;6.07;;;4.63;;
13163;SDS011;6647;53.688;10.746;2022-12-07T04:53:33;6.03;;;4.70;;
13163;SDS011;6647;53.688;10.746;2022-12-07T04:54:54;8.15;;;5.55;;
13163;SDS011;6647;53.688;10.746;2022-12-07T04:56:15;7.60;;;5.70;;
13163;SDS011;6647;53.688;10.746;2022-12-07T04:57:36;5.45;;;4.70;;
13163;SDS011;6647;53.688;10.746;2022-12-07T04:58:57;5.65;;;4.35;;
13163;SDS011;6647;53.688;10.746;2022-12-07T05:00:18;6.50;;;4.97;;
13163;SDS011;6647;53.688;10.746;2022-12-07T05:01:39;5.70;;;4.88;;
13163;SDS011;6647;53.688;10.746;2022-12-07T05:03:01;7.65;;;4.47;;
13163;SDS011;6647;53.688;10.746;2022-12-07T05:04:21;5.43;;;4.20;;
13163;SDS011;6647;53.688;10.746;2022-12-07T05:05:42;6.20;;;5.10;;
13163;SDS011;6647;53.688;10.746;2022-12-07T05:07:03;5.70;;;4.35;;
13163;SDS011;6647;53.688;10.746;2022-12-07T05:08:24;10.13;;;4.10;;
13163;SDS011;6647;53.688;10.746;2022-12-07T05:09:45;4.60;;;4.18;;
13163;SDS011;6647;53.688;10.746;2022-12-07T05:11:06;7.13;;;4.90;;
13163;SDS011;6647;53.688;10.746;2022-12-07T05:12:28;6.63;;;4.68;;
13163;SDS011;6647;53.688;10.746;2022-12-07T05:13:49;5.80;;;3.78;;
13163;SDS011;6647;53.688;10.746;2022-12-07T05:15:09;6.57;;;4.55;;
13163;SDS011;6647;53.688;10.746;2022-12-07T05:16:30;5.70;;;4.60;;
13163;SDS011;6647;53.688;10.746;2022-12-07T05:17:52;5.47;;;4.32;;
13163;SDS011;6647;53.688;10.746;2022-12-07T05:19:13;7.30;;;4.80;;
13163;SDS011;6647;53.688;10.746;2022-12-07T05:20:34;6.40;;;4.90;;
13163;SDS011;6647;53.688;10.746;2022-12-07T05:21:54;6.10;;;4.88;;
13163;SDS011;6647;53.688;10.746;2022-12-07T05:23:15;6.25;;;4.80;;
13163;SDS011;6647;53.688;10.746;2022-12-07T05:24:36;8.02;;;5.00;;
13163;SDS011;6647;53.688;10.746;2022-12-07T05:25:57;6.85;;;4.95;;
13163;SDS011;6647;53.688;10.746;2022-12-07T05:27:19;5.22;;;4.55;;
13163;SDS011;6647;53.688;10.746;2022-12-07T05:28:40;8.55;;;5.03;;
13163;SDS011;6647;53.688;10.746;2022-12-07T05:30:01;9.10;;;5.50;;
13163;SDS011;6647;53.688;10.746;2022-12-07T05:31:23;5.70;;;4.60;;
13163;SDS011;6647;53.688;10.746;2022-12-07T05:32:44;7.03;;;4.75;;
13163;SDS011;6647;53.688;10.746;2022-12-07T05:34:05;6.05;;;4.50;;
13163;SDS011;6647;53.688;10.746;2022-12-07T05:35:26;6.25;;;4.85;;
13163;SDS011;6647;53.688;10.746;2022-12-07T05:36:47;11.57;;;4.90;;
13163;SDS011;6647;53.688;10.746;2022-12-07T05:38:11;9.95;;;4.97;;
13163;SDS011;6647;53.688;10.746;2022-12-07T05:39:32;7.40;;;5.05;;
13163;SDS011;6647;53.688;10.746;2022-12-07T05:40:52;9.02;;;5.45;;
13163;SDS011;6647;53.688;10.746;2022-12-07T05:42:13;8.32;;;5.10;;
13163;SDS011;6647;53.688;10.746;2022-12-07T05:43:34;6.22;;;5.40;;
13163;SDS011;6647;53.688;10.746;2022-12-07T05:44:55;7.65;;;5.90;;
13163;SDS011;6647;53.688;10.746;2022-12-07T05:46:16;8.52;;;6.03;;
13163;SDS011;6647;53.688;10.746;2022-12-07T05:47:37;9.38;;;6.82;;
13163;SDS011;6647;53.688;10.746;2022-12-07T05:48:58;7.95;;;5.70;;
13163;SDS011;6647;53.688;10.746;2022-12-07T05:50:19;7.97;;;6.10;;
13163;SDS011;6647;53.688;10.746;2022-12-07T05:51:40;12.40;;;6.13;;
13163;SDS011;6647;53.688;10.746;2022-12-07T05:53:01;7.60;;;5.60;;
13163;SDS011;6647;53.688;10.746;2022-12-07T05:54:22;7.70;;;6.57;;
13163;SDS011;6647;53.688;10.746;2022-12-07T05:55:43;8.02;;;6.45;;
13163;SDS011;6647;53.688;10.746;2022-12-07T05:57:04;7.90;;;6.50;;
13163;SDS011;6647;53.688;10.746;2022-12-07T05:58:25;8.60;;;5.95;;
13163;SDS011;6647;53.688;10.746;2022-12-07T06:00:05;7.13;;;6.40;;
13163;SDS011;6647;53.688;10.746;2022-12-07T06:01:26;8.73;;;6.63;;
13163;SDS011;6647;53.688;10.746;2022-12-07T06:02:47;7.32;;;6.28;;
13163;SDS011;6647;53.688;10.746;2022-12-07T06:04:08;8.50;;;7.00;;
13163;SDS011;6647;53.688;10.746;2022-12-07T06:05:29;8.52;;;5.43;;
13163;SDS011;6647;53.688;10.746;2022-12-07T06:06:50;9.25;;;6.82;;
13163;SDS011;6647;53.688;10.746;2022-12-07T06:08:11;7.90;;;6.32;;
13163;SDS011;6647;53.688;10.746;2022-12-07T06:09:32;8.70;;;6.72;;
13163;SDS011;6647;53.688;10.746;2022-12-07T06:10:54;7.95;;;6.18;;
13163;SDS011;6647;53.688;10.746;2022-12-07T06:12:35;8.65;;;6.53;;
13163;SDS011;6647;53.688;10.746;2022-12-07T06:13:57;9.43;;;6.20;;
13163;SDS011;6647;53.688;10.746;2022-12-07T06:15:18;9.15;;;6.20;;
13163;SDS011;6647;53.688;10.746;2022-12-07T06:16:39;9.55;;;6.35;;
13163;SDS011;6647;53.688;10.746;2022-12-07T06:18:00;7.35;;;6.00;;
13163;SDS011;6647;53.688;10.746;2022-12-07T06:19:21;5.90;;;5.30;;
13163;SDS011;6647;53.688;10.746;2022-12-07T06:20:42;7.10;;;5.80;;
13163;SDS011;6647;53.688;10.746;2022-12-07T06:22:02;7.60;;;5.70;;
13163;SDS011;6647;53.688;10.746;2022-12-07T06:23:24;10.85;;;6.13;;
13163;SDS011;6647;53.688;10.746;2022-12-07T06:24:45;9.88;;;6.07;;
13163;SDS011;6647;53.688;10.746;2022-12-07T06:26:06;6.70;;;5.07;;
13163;SDS011;6647;53.688;10.746;2022-12-07T06:27:27;7.68;;;5.57;;
13163;SDS011;6647;53.688;10.746;2022-12-07T06:28:48;7.75;;;6.05;;
13163;SDS011;6647;53.688;10.746;2022-12-07T06:30:09;9.75;;;6.65;;
13163;SDS011;6647;53.688;10.746;2022-12-07T06:31:30;9.05;;;6.15;;
13163;SDS011;6647;53.688;10.746;2022-12-07T06:32:51;7.72;;;5.97;;
13163;SDS011;6647;53.688;10.746;2022-12-07T06:34:14;8.35;;;5.90;;
13163;SDS011;6647;53.688;10.746;2022-12-07T06:35:36;9.40;;;6.88;;
13163;SDS011;6647;53.688;10.746;2022-12-07T06:36:57;11.35;;;5.93;;
13163;SDS011;6647;53.688;10.746;2022-12-07T06:38:18;8.25;;;6.18;;
13163;SDS011;6647;53.688;10.746;2022-12-07T06:39:39;11.23;;;6.10;;
13163;SDS011;6647;53.688;10.746;2022-12-07T06:41:00;7.75;;;5.95;;
13163;SDS011;6647;53.688;10.746;2022-12-07T06:42:21;8.77;;;6.63;;
13163;SDS011;6647;53.688;10.746;2022-12-07T06:43:41;7.60;;;5.13;;
13163;SDS011;6647;53.688;10.746;2022-12-07T06:45:02;7.40;;;5.90;;
13163;SDS011;6647;53.688;10.746;2022-12-07T06:46:24;8.90;;;5.93;;
13163;SDS011;6647;53.688;10.746;2022-12-07T06:47:46;7.50;;;5.78;;
13163;SDS011;6647;53.688;10.746;2022-12-07T06:49:06;10.20;;;6.30;;
13163;SDS011;6647;53.688;10.746;2022-12-07T06:50:27;7.57;;;6.00;;
13163;SDS011;6647;53.688;10.746;2022-12-07T06:51:48;10.88;;;5.85;;
13163;SDS011;6647;53.688;10.746;2022-12-07T06:53:09;13.77;;;6.60;;
13163;SDS011;6647;53.688;10.746;2022-12-07T06:54:30;11.35;;;6.40;;
13163;SDS011;6647;53.688;10.746;2022-12-07T06:55:51;10.60;;;7.05;;
13163;SDS011;6647;53.688;10.746;2022-12-07T06:57:12;10.20;;;6.03;;
13163;SDS011;6647;53.688;10.746;2022-12-07T06:58:33;9.50;;;6.15;;
13163;SDS011;6647;53.688;10.746;2022-12-07T06:59:54;9.25;;;6.60;;
13163;SDS011;6647;53.688;10.746;2022-12-07T07:01:16;10.90;;;7.13;;
13163;SDS011;6647;53.688;10.746;2022-12-07T07:02:38;10.77;;;6.25;;
13163;SDS011;6647;53.688;10.746;2022-12-07T07:04:00;8.70;;;6.07;;
13163;SDS011;6647;53.688;10.746;2022-12-07T07:05:21;11.48;;;6.75;;
13163;SDS011;6647;53.688;10.746;2022-12-07T07:06:42;8.73;;;6.47;;
13163;SDS011;6647;53.688;10.746;2022-12-07T07:08:03;11.52;;;6.97;;
13163;SDS011;6647;53.688;10.746;2022-12-07T07:09:25;10.48;;;6.90;;
13163;SDS011;6647;53.688;10.746;2022-12-07T07:10:46;10.43;;;6.72;;
13163;SDS011;6647;53.688;10.746;2022-12-07T07:12:07;9.45;;;6.68;;
13163;SDS011;6647;53.688;10.746;2022-12-07T07:13:28;12.82;;;7.28;;
13163;SDS011;6647;53.688;10.746;2022-12-07T07:14:49;11.55;;;6.30;;
13163;SDS011;6647;53.688;10.746;2022-12-07T07:16:10;11.13;;;6.40;;
13163;SDS011;6647;53.688;10.746;2022-12-07T07:17:30;12.23;;;6.57;;
13163;SDS011;6647;53.688;10.746;2022-12-07T07:18:51;9.90;;;6.32;;
13163;SDS011;6647;53.688;10.746;2022-12-07T07:20:12;8.95;;;6.65;;
13163;SDS011;6647;53.688;10.746;2022-12-07T07:21:33;12.75;;;6.90;;
13163;SDS011;6647;53.688;10.746;2022-12-07T07:22:54;7.70;;;5.72;;
13163;SDS011;6647;53.688;10.746;2022-12-07T07:24:16;9.50;;;6.65;;
13163;SDS011;6647;53.688;10.746;2022-12-07T07:25:37;8.02;;;6.15;;
13163;SDS011;6647;53.688;10.746;2022-12-07T07:26:58;8.60;;;6.60;;
13163;SDS011;6647;53.688;10.746;2022-12-07T07:28:19;11.35;;;6.47;;
13163;SDS011;6647;53.688;10.746;2022-12-07T07:29:40;9.18;;;6.05;;
13163;SDS011;6647;53.688;10.746;2022-12-07T07:31:00;10.15;;;7.13;;
13163;SDS011;6647;53.688;10.746;2022-12-07T07:32:21;10.35;;;6.20;;
13163;SDS011;6647;53.688;10.746;2022-12-07T07:33:42;9.95;;;6.32;;
13163;SDS011;6647;53.688;10.746;2022-12-07T07:35:03;7.43;;;5.38;;
13163;SDS011;6647;53.688;10.746;2022-12-07T07:36:25;7.68;;;5.85;;
13163;SDS011;6647;53.688;10.746;2022-12-07T07:37:45;9.07;;;5.68;;
13163;SDS011;6647;53.688;10.746;2022-12-07T07:39:06;10.65;;;6.93;;
13163;SDS011;6647;53.688;10.746;2022-12-07T07:40:27;10.70;;;6.43;;
13163;SDS011;6647;53.688;10.746;2022-12-07T07:41:51;13.15;;;6.85;;
13163;SDS011;6647;53.688;10.746;2022-12-07T07:43:12;11.70;;;6.90;;
13163;SDS011;6647;53.688;10.746;2022-12-07T07:44:33;13.65;;;7.28;;
13163;SDS011;6647;53.688;10.746;2022-12-07T07:45:54;12.30;;;6.35;;
13163;SDS011;6647;53.688;10.746;2022-12-07T07:47:15;9.50;;;6.18;;
13163;SDS011;6647;53.688;10.746;2022-12-07T07:48:36;12.18;;;6.00;;
13163;SDS011;6647;53.688;10.746;2022-12-07T07:49:57;7.95;;;5.72;;
13163;SDS011;6647;53.688;10.746;2022-12-07T07:51:18;9.80;;;6.60;;
13163;SDS011;6647;53.688;10.746;2022-12-07T07:52:39;8.20;;;6.18;;
13163;SDS011;6647;53.688;10.746;2022-12-07T07:54:00;8.80;;;5.65;;
13163;SDS011;6647;53.688;10.746;2022-12-07T07:55:21;9.80;;;6.97;;
13163;SDS011;6647;53.688;10.746;2022-12-07T07:56:42;10.55;;;7.05;;
13163;SDS011;6647;53.688;10.746;2022-12-07T07:58:03;9.80;;;6.00;;
13163;SDS011;6647;53.688;10.746;2022-12-07T07:59:24;10.32;;;6.25;;
13163;SDS011;6647;53.688;10.746;2022-12-07T08:00:45;7.80;;;5.90;;
13163;SDS011;6647;53.688;10.746;2022-12-07T08:02:08;8.80;;;5.40;;
13163;SDS011;6647;53.688;10.746;2022-12-07T08:03:34;8.18;;;5.88;;
13163;SDS011;6647;53.688;10.746;2022-12-07T08:04:55;8.75;;;5.45;;
13163;SDS011;6647;53.688;10.746;2022-12-07T08:06:16;9.63;;;5.50;;
13163;SDS011;6647;53.688;10.746;2022-12-07T08:07:37;10.27;;;5.60;;
13163;SDS011;6647;53.688;10.746;2022-12-07T08:08:59;9.65;;;5.28;;
13163;SDS011;6647;53.688;10.746;2022-12-07T08:10:19;9.93;;;6.10;;
13163;SDS011;6647;53.688;10.746;2022-12-07T08:11:40;8.05;;;5.15;;
13163;SDS011;6647;53.688;10.746;2022-12-07T08:13:01;7.72;;;5.45;;
13163;SDS011;6647;53.688;10.746;2022-12-07T08:14:31;11.43;;;5.80;;
13163;SDS011;6647;53.688;10.746;2022-12-07T08:15:53;7.95;;;5.53;;
13163;SDS011;6647;53.688;10.746;2022-12-07T08:17:14;7.45;;;5.13;;
13163;SDS011;6647;53.688;10.746;2022-12-07T08:18:38;8.57;;;5.80;;
13163;SDS011;6647;53.688;10.746;2022-12-07T08:20:00;6.82;;;4.90;;
13163;SDS011;6647;53.688;10.746;2022-12-07T08:21:21;6.47;;;4.78;;
13163;SDS011;6647;53.688;10.746;2022-12-07T08:22:42;6.63;;;4.95;;
13163;SDS011;6647;53.688;10.746;2022-12-07T08:24:02;9.18;;;5.00;;
13163;SDS011;6647;53.688;10.746;2022-12-07T08:25:24;8.27;;;5.20;;
13163;SDS011;6647;53.688;10.746;2022-12-07T08:26:45;5.40;;;4.55;;
13163;SDS011;6647;53.688;10.746;2022-12-07T08:28:06;8.30;;;5.57;;
13163;SDS011;6647;53.688;10.746;2022-12-07T08:29:27;6.95;;;4.50;;
13163;SDS011;6647;53.688;10.746;2022-12-07T08:30:48;9.63;;;5.57;;
13163;SDS011;6647;53.688;10.746;2022-12-07T08:32:09;15.15;;;5.10;;